Time;durP1;ratioP1;P1;durP2;ratioP2;P2;SDS_P1;SDS_P2;PMS_P1;PMS_P2;Temp;Humidity;BMP_temperature;BMP_pressure;BME280_temperature;BME280_humidity;BME280_pressure;Samples;Min_cycle;Max_cycle;Signal;HPM_P1;HPM_P2
2022/03/08 00:01:20;;;;;;;;;;;;;;;4.35;67.74;100737.61;1703106;83;21091;-84
2022/03/08 00:03:46;;;;;;;;;;;;;;;4.33;67.73;100744.73;1701799;84;20192;-86
2022/03/08 00:06:12;;;;;;;;;;;;;;;4.38;67.65;100750.48;1702416;83;20113;-84
2022/03/08 00:08:37;;;;;;;;;;;;;;;4.27;68.24;100750.75;1702680;83;20176;-85
2022/03/08 00:11:03;;;;;;;;;;;;;;;4.25;68.53;100748.67;1700828;82;20146;-85
2022/03/08 00:13:29;;;;;;;;;;;;;;;4.37;68.37;100744.91;1702919;83;21183;-84
2022/03/08 00:15:55;;;;;;;;;;;;;;;4.42;68.28;100746.27;1703314;83;20771;-84
2022/03/08 00:18:21;;;;;;;;;;;;;;;4.43;68.57;100744.50;1700527;83;20177;-83
2022/03/08 00:20:46;;;;;;;;;;;;;;;4.56;68.17;100735.36;1701120;82;20210;-84
2022/03/08 00:23:12;;;;;;;;;;;;;;;4.59;68.04;100730.75;1709756;81;20167;-83
2022/03/08 00:25:38;;;;;;;;;;;;;;;4.70;67.90;100735.74;1701889;82;21127;-84
2022/03/08 00:28:03;;;;;;;;;;;;;;;4.72;67.58;100735.16;1702076;82;20251;-85
2022/03/08 00:30:29;;;;;;;;;;;;;;;4.70;67.87;100726.11;1701150;84;20202;-85
2022/03/08 00:32:55;;;;;;;;;;;;;;;4.63;67.79;100720.46;1701817;82;20129;-83
2022/03/08 00:35:21;;;;;;;;;;;;;;;4.88;67.10;100715.32;1702465;82;20123;-82
2022/03/08 00:37:50;;;;;;;;;;;;;;;4.88;66.98;100712.25;1703476;83;21465;-83
2022/03/08 00:40:17;;;;;;;;;;;;;;;4.76;67.34;100711.78;1699661;83;21113;-84
2022/03/08 00:42:44;;;;;;;;;;;;;;;4.79;67.25;100711.58;1700776;83;20178;-84
2022/03/08 00:45:09;;;;;;;;;;;;;;;4.50;68.01;100714.37;1700926;83;20181;-84
2022/03/08 00:47:38;;;;;;;;;;;;;;;4.45;68.42;100725.62;1701049;84;20153;-84
2022/03/08 00:50:04;;;;;;;;;;;;;;;4.43;68.45;100726.20;1677916;84;21199;-84
2022/03/08 00:52:31;;;;;;;;;;;;;;;4.39;68.71;100724.72;1699030;84;21165;-82
2022/03/08 00:54:57;;;;;;;;;;;;;;;4.23;69.25;100736.19;1706042;82;20141;-82
2022/03/08 00:57:24;;;;;;;;;;;;;;;4.11;69.68;100727.36;1703251;82;21213;-83
2022/03/08 00:59:50;;;;;;;;;;;;;;;4.08;69.77;100730.66;1704096;83;20178;-83
2022/03/08 01:02:15;;;;;;;;;;;;;;;3.85;70.64;100729.05;1700985;83;21146;-83
2022/03/08 01:04:41;;;;;;;;;;;;;;;3.92;70.41;100732.13;1700209;83;20153;-84
2022/03/08 01:07:07;;;;;;;;;;;;;;;3.90;70.48;100729.61;1704741;83;20114;-83
2022/03/08 01:09:33;;;;;;;;;;;;;;;4.02;70.10;100729.75;1701265;83;20169;-83
2022/03/08 01:11:59;;;;;;;;;;;;;;;3.94;70.29;100727.14;1701594;83;20919;-83
2022/03/08 01:14:24;;;;;;;;;;;;;;;3.92;70.42;100722.50;1703717;83;21101;-84
2022/03/08 01:16:50;;;;;;;;;;;;;;;3.77;70.98;100726.09;1703111;83;20341;-83
2022/03/08 01:19:16;;;;;;;;;;;;;;;3.77;71.17;100723.48;1701677;83;20193;-83
2022/03/08 01:21:41;;;;;;;;;;;;;;;3.70;71.46;100725.66;1700426;83;20196;-83
2022/03/08 01:24:07;;;;;;;;;;;;;;;3.75;71.13;100718.83;1703565;82;20188;-83
2022/03/08 01:26:33;;;;;;;;;;;;;;;3.57;71.65;100720.38;1699446;83;21135;-83
2022/03/08 01:28:58;;;;;;;;;;;;;;;3.62;71.78;100724.45;1702948;83;20174;-83
2022/03/08 01:31:24;;;;;;;;;;;;;;;3.54;72.11;100723.19;1700297;83;20165;-82
2022/03/08 01:33:50;;;;;;;;;;;;;;;3.55;72.27;100719.62;1701657;84;20171;-82
2022/03/08 01:36:16;;;;;;;;;;;;;;;3.47;72.64;100721.88;1705576;82;20603;-83
2022/03/08 01:38:42;;;;;;;;;;;;;;;3.62;71.91;100716.62;1702016;83;21946;-82
2022/03/08 01:41:07;;;;;;;;;;;;;;;3.58;72.04;100714.20;1701879;83;20146;-82
2022/03/08 01:43:33;;;;;;;;;;;;;;;3.66;71.89;100711.58;1702824;83;20148;-83
2022/03/08 01:45:59;;;;;;;;;;;;;;;3.62;72.10;100711.40;1702489;84;20149;-84
2022/03/08 01:48:24;;;;;;;;;;;;;;;3.69;72.12;100706.16;1698459;83;20143;-82
2022/03/08 01:50:50;;;;;;;;;;;;;;;3.70;72.37;100707.38;1703440;82;21020;-83
2022/03/08 01:53:15;;;;;;;;;;;;;;;3.69;72.50;100707.47;1702320;82;20152;-82
2022/03/08 01:55:41;;;;;;;;;;;;;;;3.68;72.62;100713.62;1700971;84;20809;-82
2022/03/08 01:58:07;;;;;;;;;;;;;;;3.72;72.35;100710.72;1699118;83;20196;-82
2022/03/08 02:00:32;;;;;;;;;;;;;;;3.75;72.31;100709.21;1701391;82;20503;-82
2022/03/08 02:02:58;;;;;;;;;;;;;;;3.65;72.67;100712.06;1700451;84;21996;-84
2022/03/08 02:05:24;;;;;;;;;;;;;;;3.78;72.35;100709.02;1701466;84;20186;-82
2022/03/08 02:07:50;;;;;;;;;;;;;;;3.74;72.63;100713.23;1701489;83;20204;-84
2022/03/08 02:10:15;;;;;;;;;;;;;;;3.70;72.81;100722.22;1699032;82;20609;-82
2022/03/08 02:12:41;;;;;;;;;;;;;;;3.84;72.35;100724.78;1700326;83;20216;-84
2022/03/08 02:15:18;;;;;;;;;;;;;;;3.88;72.22;100726.71;1700190;83;21139;-84
2022/03/08 02:17:44;;;;;;;;;;;;;;;3.78;72.35;100725.17;1699732;82;20166;-84
2022/03/08 02:20:10;;;;;;;;;;;;;;;3.82;72.28;100724.02;1701424;83;20146;-83
2022/03/08 02:22:36;;;;;;;;;;;;;;;3.64;72.88;100726.05;1700965;82;20473;-84
2022/03/08 02:25:02;;;;;;;;;;;;;;;3.61;73.17;100722.80;1702390;82;20661;-84
2022/03/08 02:27:28;;;;;;;;;;;;;;;3.47;73.80;100721.88;1706920;82;21086;-84
2022/03/08 02:29:54;;;;;;;;;;;;;;;3.49;73.85;100721.31;1702988;82;20142;-81
2022/03/08 02:32:19;;;;;;;;;;;;;;;3.52;73.65;100727.64;1701086;83;20144;-83
2022/03/08 02:34:45;;;;;;;;;;;;;;;3.11;75.26;100736.28;1702459;84;21033;-83
2022/03/08 02:37:13;;;;;;;;;;;;;;;3.17;75.59;100731.99;1702549;83;20170;-83
2022/03/08 02:39:39;;;;;;;;;;;;;;;3.27;74.95;100728.81;1702921;84;21143;-83
2022/03/08 02:42:05;;;;;;;;;;;;;;;3.46;74.62;100734.55;1702116;82;20324;-83
2022/03/08 02:44:30;;;;;;;;;;;;;;;3.24;75.09;100738.49;1703060;83;20271;-82
2022/03/08 02:46:56;;;;;;;;;;;;;;;3.20;74.53;100743.55;1704633;83;20490;-82
2022/03/08 02:49:22;;;;;;;;;;;;;;;3.16;74.86;100747.27;1705490;83;20141;-82
2022/03/08 02:51:47;;;;;;;;;;;;;;;3.18;74.42;100745.39;1703881;83;21078;-84
2022/03/08 02:54:13;;;;;;;;;;;;;;;3.11;74.61;100746.72;1699413;83;20528;-85
2022/03/08 02:56:38;;;;;;;;;;;;;;;3.01;74.89;100748.20;1702394;83;20145;-83
2022/03/08 02:59:04;;;;;;;;;;;;;;;3.19;74.37;100751.47;1702519;82;20407;-85
2022/03/08 03:01:30;;;;;;;;;;;;;;;3.07;75.17;100750.44;1704784;82;20602;-82
2022/03/08 03:03:55;;;;;;;;;;;;;;;2.99;74.86;100759.20;1701966;82;21091;-82
2022/03/08 03:06:21;;;;;;;;;;;;;;;2.88;75.48;100763.75;1700532;84;20168;-84
2022/03/08 03:08:47;;;;;;;;;;;;;;;2.87;75.40;100762.06;1702812;83;20956;-84
2022/03/08 03:11:13;;;;;;;;;;;;;;;2.90;75.28;100776.70;1699566;84;20138;-84
2022/03/08 03:13:38;;;;;;;;;;;;;;;2.65;76.55;100772.94;1698831;84;20151;-84
2022/03/08 03:16:04;;;;;;;;;;;;;;;2.52;76.81;100770.20;1696531;84;21119;-84
2022/03/08 03:18:29;;;;;;;;;;;;;;;2.58;75.92;100773.77;1699844;83;20189;-84
2022/03/08 03:20:55;;;;;;;;;;;;;;;2.50;76.03;100772.91;1700634;84;20206;-84
2022/03/08 03:23:21;;;;;;;;;;;;;;;2.40;76.36;100778.27;1704952;83;20130;-84
2022/03/08 03:25:46;;;;;;;;;;;;;;;2.42;76.23;100775.56;1700879;84;20156;-84
2022/03/08 03:28:12;;;;;;;;;;;;;;;2.41;76.24;100781.25;1700957;84;21903;-83
2022/03/08 03:30:37;;;;;;;;;;;;;;;2.46;76.17;100777.91;1702038;84;20150;-83
2022/03/08 03:33:03;;;;;;;;;;;;;;;2.65;75.72;100779.45;1703790;82;20893;-83
2022/03/08 03:35:30;;;;;;;;;;;;;;;2.69;76.12;100774.45;1705198;82;20205;-84
2022/03/08 03:37:56;;;;;;;;;;;;;;;2.46;76.26;100781.82;1698756;84;20166;-83
2022/03/08 03:40:22;;;;;;;;;;;;;;;2.60;76.23;100786.23;1696906;83;21179;-83
2022/03/08 03:42:47;;;;;;;;;;;;;;;2.64;76.19;100790.80;1699037;84;20177;-83
2022/03/08 03:45:13;;;;;;;;;;;;;;;2.77;75.62;100789.17;1700510;83;20455;-83
2022/03/08 03:47:39;;;;;;;;;;;;;;;2.75;75.47;100787.13;1700928;84;20775;-83
2022/03/08 03:50:05;;;;;;;;;;;;;;;2.74;75.76;100793.26;1703450;84;20288;-84
2022/03/08 03:52:30;;;;;;;;;;;;;;;2.79;76.05;100797.73;1700380;83;21138;-84
2022/03/08 03:54:56;;;;;;;;;;;;;;;2.78;76.79;100788.25;1701687;83;20505;-84
2022/03/08 03:57:21;;;;;;;;;;;;;;;2.85;76.50;100785.63;1700100;84;20182;-84
2022/03/08 03:59:47;;;;;;;;;;;;;;;2.86;76.34;100783.88;1700772;84;20627;-84
2022/03/08 04:02:14;;;;;;;;;;;;;;;2.79;76.03;100783.39;1702169;84;20321;-84
2022/03/08 04:04:39;;;;;;;;;;;;;;;2.74;76.00;100784.12;1703102;83;21113;-84
2022/03/08 04:07:05;;;;;;;;;;;;;;;2.55;75.87;100790.03;1704225;84;20252;-84
2022/03/08 04:09:31;;;;;;;;;;;;;;;2.63;75.36;100785.23;1701723;83;20146;-84
2022/03/08 04:11:56;;;;;;;;;;;;;;;2.50;75.52;100784.64;1701662;84;20738;-85
2022/03/08 04:14:22;;;;;;;;;;;;;;;2.50;75.51;100795.06;1702000;83;21090;-84
2022/03/08 04:16:47;;;;;;;;;;;;;;;2.54;75.40;100798.80;1703222;84;21198;-82
2022/03/08 04:19:13;;;;;;;;;;;;;;;2.32;75.87;100796.94;1703690;84;20154;-82
2022/03/08 04:21:39;;;;;;;;;;;;;;;2.34;75.90;100801.59;1700785;83;20629;-82
2022/03/08 04:24:05;;;;;;;;;;;;;;;2.36;75.96;100798.91;1701775;83;20110;-82
2022/03/08 04:26:30;;;;;;;;;;;;;;;2.38;76.03;100802.28;1702993;84;20200;-82
2022/03/08 04:28:56;;;;;;;;;;;;;;;2.39;76.00;100803.94;1699957;84;21181;-82
2022/03/08 04:31:21;;;;;;;;;;;;;;;2.32;76.70;100798.72;1705910;81;20495;-83
2022/03/08 04:33:49;;;;;;;;;;;;;;;2.25;77.16;100806.50;1706773;82;20205;-82
2022/03/08 04:36:14;;;;;;;;;;;;;;;2.28;76.94;100799.81;1704681;82;20739;-83
2022/03/08 04:38:44;;;;;;;;;;;;;;;2.15;78.07;100804.41;1702540;82;20214;-82
2022/03/08 04:41:09;;;;;;;;;;;;;;;2.12;78.62;100807.19;1697027;84;20147;-84
2022/03/08 04:43:35;;;;;;;;;;;;;;;2.18;79.10;100815.12;1699765;83;20185;-84
2022/03/08 04:46:00;;;;;;;;;;;;;;;2.41;78.24;100807.32;1705267;84;20455;-84
2022/03/08 04:48:26;;;;;;;;;;;;;;;2.48;78.41;100818.23;1702413;84;20793;-84
2022/03/08 04:50:51;;;;;;;;;;;;;;;2.39;78.79;100805.24;1702330;84;20141;-83
2022/03/08 04:53:17;;;;;;;;;;;;;;;2.53;78.31;100810.14;1700645;83;21215;-84
2022/03/08 04:55:43;;;;;;;;;;;;;;;2.51;78.46;100805.84;1700290;84;20169;-83
2022/03/08 04:58:08;;;;;;;;;;;;;;;2.20;79.72;100802.02;1701408;84;20169;-84
2022/03/08 05:00:34;;;;;;;;;;;;;;;2.40;79.04;100796.51;1701591;84;20797;-83
2022/03/08 05:02:59;;;;;;;;;;;;;;;2.56;78.48;100802.15;1705874;82;20164;-84
2022/03/08 05:05:25;;;;;;;;;;;;;;;2.63;78.28;100804.31;1703600;82;21148;-83
2022/03/08 05:07:51;;;;;;;;;;;;;;;2.63;78.23;100802.18;1699808;82;20141;-83
2022/03/08 05:10:16;;;;;;;;;;;;;;;2.70;78.19;100803.48;1703612;82;20475;-83
2022/03/08 05:12:42;;;;;;;;;;;;;;;2.55;77.53;100797.84;1701756;83;20836;-83
2022/03/08 05:15:08;;;;;;;;;;;;;;;2.40;77.43;100804.33;1703749;83;20477;-84
2022/03/08 05:17:35;;;;;;;;;;;;;;;2.25;77.33;100810.41;1704607;84;21951;-84
2022/03/08 05:20:02;;;;;;;;;;;;;;;2.14;77.35;100814.91;1702909;84;20178;-84
2022/03/08 05:22:28;;;;;;;;;;;;;;;2.08;77.68;100813.51;1702259;83;20222;-84
2022/03/08 05:24:53;;;;;;;;;;;;;;;2.22;77.51;100819.70;1703693;84;20443;-84
2022/03/08 05:27:19;;;;;;;;;;;;;;;2.24;76.93;100821.78;1703132;83;20129;-84
2022/03/08 05:29:44;;;;;;;;;;;;;;;2.32;76.84;100831.30;1704163;84;21139;-84
2022/03/08 05:32:10;;;;;;;;;;;;;;;2.40;76.69;100830.39;1699638;82;20248;-83
2022/03/08 05:34:37;;;;;;;;;;;;;;;2.19;76.72;100836.36;1697100;82;20122;-83
2022/03/08 05:37:03;;;;;;;;;;;;;;;2.24;76.70;100829.59;1693606;84;20195;-84
2022/03/08 05:39:29;;;;;;;;;;;;;;;2.33;76.40;100827.74;1694256;84;20277;-84
2022/03/08 05:41:56;;;;;;;;;;;;;;;2.39;76.28;100826.09;1695565;84;21893;-82
2022/03/08 05:44:21;;;;;;;;;;;;;;;2.46;75.87;100823.53;1690155;84;20223;-85
2022/03/08 05:46:47;;;;;;;;;;;;;;;2.35;75.95;100824.61;1693641;84;20193;-87
2022/03/08 05:49:12;;;;;;;;;;;;;;;2.35;75.90;100823.30;1696897;83;20168;-85
2022/03/08 05:51:38;;;;;;;;;;;;;;;2.40;75.90;100819.14;1700805;84;20139;-83
2022/03/08 05:54:03;;;;;;;;;;;;;;;2.51;75.84;100831.92;1697896;84;21342;-85
2022/03/08 05:56:29;;;;;;;;;;;;;;;2.59;75.45;100843.69;1699818;84;20225;-85
2022/03/08 05:58:54;;;;;;;;;;;;;;;2.61;75.60;100848.34;1700277;84;20179;-86
2022/03/08 06:01:21;;;;;;;;;;;;;;;2.59;75.50;100844.99;1697014;83;20137;-83
2022/03/08 06:03:49;;;;;;;;;;;;;;;2.76;75.30;100850.07;1690342;83;20520;-86
2022/03/08 06:06:14;;;;;;;;;;;;;;;2.75;75.20;100852.33;1689498;84;21192;-86
2022/03/08 06:08:40;;;;;;;;;;;;;;;2.65;75.69;100847.25;1692052;83;20184;-84
2022/03/08 06:11:06;;;;;;;;;;;;;;;2.71;76.18;100854.72;1697029;83;20708;-80
2022/03/08 06:13:32;;;;;;;;;;;;;;;2.74;76.29;100862.38;1698279;82;20231;-85
2022/03/08 06:15:57;;;;;;;;;;;;;;;2.66;77.25;100869.80;1699999;83;20167;-88
2022/03/08 06:18:23;;;;;;;;;;;;;;;2.71;77.53;100865.62;1697970;84;21954;-83
2022/03/08 06:20:49;;;;;;;;;;;;;;;2.76;77.75;100876.63;1696026;82;20179;-83
2022/03/08 06:23:14;;;;;;;;;;;;;;;2.63;78.58;100879.10;1696163;84;20651;-82
2022/03/08 06:25:40;;;;;;;;;;;;;;;2.46;79.12;100887.87;1695067;84;20139;-88
2022/03/08 06:28:06;;;;;;;;;;;;;;;2.58;78.87;100893.70;1698504;83;20349;-85
2022/03/08 06:30:31;;;;;;;;;;;;;;;2.66;78.31;100891.97;1691436;84;21134;-85
2022/03/08 06:32:57;;;;;;;;;;;;;;;2.69;77.87;100891.80;1695841;83;20899;-85
2022/03/08 06:35:22;;;;;;;;;;;;;;;2.50;77.77;100890.66;1705532;82;20135;-84
2022/03/08 06:37:48;;;;;;;;;;;;;;;2.77;77.03;100881.75;1705758;82;20486;-85
2022/03/08 06:40:14;;;;;;;;;;;;;;;2.75;77.04;100878.41;1702820;83;20142;-84
2022/03/08 06:42:39;;;;;;;;;;;;;;;2.63;77.76;100878.63;1702596;82;21032;-85
2022/03/08 06:45:08;;;;;;;;;;;;;;;2.66;77.66;100882.84;1703820;82;20157;-86
2022/03/08 06:47:33;;;;;;;;;;;;;;;2.74;77.60;100887.15;1702785;83;20467;-85
2022/03/08 06:49:59;;;;;;;;;;;;;;;2.73;77.25;100893.28;1702254;84;20133;-86
2022/03/08 06:52:25;;;;;;;;;;;;;;;2.76;77.09;100895.72;1700471;83;20155;-85
2022/03/08 06:54:51;;;;;;;;;;;;;;;2.80;76.58;100905.05;1701852;84;22002;-85
2022/03/08 06:57:16;;;;;;;;;;;;;;;2.76;76.86;100891.80;1701922;84;20121;-83
2022/03/08 06:59:42;;;;;;;;;;;;;;;2.63;77.30;100892.14;1701847;83;20178;-84
2022/03/08 07:02:08;;;;;;;;;;;;;;;2.85;76.70;100896.97;1703084;82;20161;-84
2022/03/08 07:04:34;;;;;;;;;;;;;;;2.95;76.43;100901.18;1702134;83;20206;-84
2022/03/08 07:06:59;;;;;;;;;;;;;;;2.98;76.33;100898.39;1705206;82;21983;-84
2022/03/08 07:09:25;;;;;;;;;;;;;;;2.96;76.52;100896.35;1701671;82;20121;-84
2022/03/08 07:11:52;;;;;;;;;;;;;;;2.80;77.15;100910.27;1702776;83;20301;-86
2022/03/08 07:14:17;;;;;;;;;;;;;;;2.81;77.16;100909.35;1701017;83;20210;-83
2022/03/08 07:16:44;;;;;;;;;;;;;;;2.65;77.44;100907.22;1707563;82;20261;-86
2022/03/08 07:19:09;;;;;;;;;;;;;;;2.82;77.25;100901.88;1701241;84;21120;-83
2022/03/08 07:21:35;;;;;;;;;;;;;;;2.81;77.43;100909.35;1701150;83;20828;-84
2022/03/08 07:24:01;;;;;;;;;;;;;;;2.79;77.86;100905.97;1704144;84;20138;-84
2022/03/08 07:26:26;;;;;;;;;;;;;;;2.75;78.35;100903.62;1701788;84;20158;-85
2022/03/08 07:28:52;;;;;;;;;;;;;;;2.82;78.08;100911.02;1706109;83;20441;-84
2022/03/08 07:31:17;;;;;;;;;;;;;;;2.95;76.80;100907.70;1700993;82;21953;-86
2022/03/08 07:33:43;;;;;;;;;;;;;;;2.85;76.98;100913.45;1698108;82;20165;-84
2022/03/08 07:36:08;;;;;;;;;;;;;;;3.00;76.66;100918.73;1696099;82;20177;-84
2022/03/08 07:38:34;;;;;;;;;;;;;;;3.11;76.21;100920.25;1688963;84;20146;-84
2022/03/08 07:40:59;;;;;;;;;;;;;;;3.19;75.32;100928.47;1680851;84;21561;-84
2022/03/08 07:43:25;;;;;;;;;;;;;;;3.24;74.92;100927.73;1691764;84;21198;-84
2022/03/08 07:45:51;;;;;;;;;;;;;;;3.26;74.82;100931.55;1688979;83;20141;-85
2022/03/08 07:48:17;;;;;;;;;;;;;;;3.16;74.99;100932.56;1684976;84;20171;-87
2022/03/08 07:50:43;;;;;;;;;;;;;;;3.23;75.02;100935.20;1688907;83;20119;-88
2022/03/08 07:53:08;;;;;;;;;;;;;;;3.14;74.97;100939.65;1688167;83;20134;-88
2022/03/08 07:55:34;;;;;;;;;;;;;;;3.02;75.88;100936.44;1682361;84;21321;-89
2022/03/08 07:58:00;;;;;;;;;;;;;;;2.80;76.60;100941.57;1689858;83;20318;-87
2022/03/08 08:00:26;;;;;;;;;;;;;;;2.90;76.26;100935.84;1687158;83;20189;-88
2022/03/08 08:02:52;;;;;;;;;;;;;;;2.78;76.64;100943.44;1679328;84;21240;-86
2022/03/08 08:05:18;;;;;;;;;;;;;;;2.91;76.00;100941.44;1684183;83;21496;-86
2022/03/08 08:07:44;;;;;;;;;;;;;;;2.79;76.27;100940.35;1693243;83;21254;-85
2022/03/08 08:10:10;;;;;;;;;;;;;;;2.88;76.18;100941.97;1692316;83;20621;-87
2022/03/08 08:12:36;;;;;;;;;;;;;;;2.89;76.19;100950.66;1693990;84;20289;-84
2022/03/08 08:15:02;;;;;;;;;;;;;;;2.91;76.13;100951.40;1692339;84;20186;-86
2022/03/08 08:17:27;;;;;;;;;;;;;;;3.00;75.78;100943.05;1685465;84;20197;-85
2022/03/08 08:19:53;;;;;;;;;;;;;;;3.03;76.21;100935.05;1679207;84;21104;-84
2022/03/08 08:22:19;;;;;;;;;;;;;;;3.05;76.14;100941.01;1690403;84;20196;-86
2022/03/08 08:24:44;;;;;;;;;;;;;;;3.10;75.92;100936.83;1690692;83;20143;-86
2022/03/08 08:27:10;;;;;;;;;;;;;;;3.11;75.80;100937.22;1684646;84;20199;-85
2022/03/08 08:29:35;;;;;;;;;;;;;;;3.08;75.58;100933.92;1687074;84;20438;-85
2022/03/08 08:32:01;;;;;;;;;;;;;;;3.23;75.47;100931.29;1684880;84;21771;-85
2022/03/08 08:34:27;;;;;;;;;;;;;;;3.14;75.43;100930.95;1693698;83;20188;-82
2022/03/08 08:36:54;;;;;;;;;;;;;;;3.10;75.54;100930.78;1701675;84;20194;-85
2022/03/08 08:39:19;;;;;;;;;;;;;;;3.19;75.18;100928.94;1706474;82;20183;-84
2022/03/08 08:41:45;;;;;;;;;;;;;;;3.29;75.00;100937.07;1705353;82;20506;-82
2022/03/08 08:44:11;;;;;;;;;;;;;;;3.11;75.61;100928.08;1699251;83;21111;-84
2022/03/08 08:46:37;;;;;;;;;;;;;;;3.29;75.38;100929.23;1704004;82;20548;-83
2022/03/08 08:49:03;;;;;;;;;;;;;;;3.27;75.32;100933.72;1700192;84;20221;-83
2022/03/08 08:51:29;;;;;;;;;;;;;;;3.19;75.54;100932.39;1702659;83;20150;-84
2022/03/08 08:53:55;;;;;;;;;;;;;;;3.29;75.14;100930.55;1696780;83;20466;-84
2022/03/08 08:56:20;;;;;;;;;;;;;;;3.29;74.77;100930.55;1701299;84;21186;-83
2022/03/08 08:58:46;;;;;;;;;;;;;;;3.10;75.26;100930.30;1703431;82;20156;-83
2022/03/08 09:01:11;;;;;;;;;;;;;;;3.25;75.32;100923.37;1702066;83;20440;-83
2022/03/08 09:03:37;;;;;;;;;;;;;;;3.10;75.32;100922.48;1700672;84;21237;-83
2022/03/08 09:06:03;;;;;;;;;;;;;;;3.35;74.90;100914.05;1704333;84;20118;-83
2022/03/08 09:08:28;;;;;;;;;;;;;;;3.17;75.31;100921.20;1704511;82;21345;-84
2022/03/08 09:10:54;;;;;;;;;;;;;;;3.34;74.88;100911.08;1704704;82;20529;-84
2022/03/08 09:13:20;;;;;;;;;;;;;;;3.54;74.68;100912.95;1706227;82;20215;-84
2022/03/08 09:15:46;;;;;;;;;;;;;;;3.66;74.18;100908.78;1701759;83;20123;-84
2022/03/08 09:18:12;;;;;;;;;;;;;;;3.72;73.98;100908.41;1702864;83;20160;-84
2022/03/08 09:20:38;;;;;;;;;;;;;;;3.90;73.42;100902.50;1702510;84;21051;-84
2022/03/08 09:23:05;;;;;;;;;;;;;;;3.86;72.95;100904.48;1703271;83;20224;-85
2022/03/08 09:25:31;;;;;;;;;;;;;;;3.88;73.36;100893.93;1700512;84;20211;-85
2022/03/08 09:27:58;;;;;;;;;;;;;;;4.04;72.93;100896.42;1702078;84;20223;-84
2022/03/08 09:30:24;;;;;;;;;;;;;;;3.97;72.63;100896.45;1704895;83;20148;-82
2022/03/08 09:32:50;;;;;;;;;;;;;;;4.08;72.34;100900.05;1706362;82;21183;-84
2022/03/08 09:35:15;;;;;;;;;;;;;;;3.98;72.48;100885.91;1702748;82;21081;-87
2022/03/08 09:37:41;;;;;;;;;;;;;;;4.05;72.52;100885.05;1705708;83;20117;-84
2022/03/08 09:40:08;;;;;;;;;;;;;;;3.90;72.79;100888.99;1707374;84;20157;-83
2022/03/08 09:42:34;;;;;;;;;;;;;;;3.85;72.63;100883.19;1705347;83;20162;-85
2022/03/08 09:44:59;;;;;;;;;;;;;;;3.87;72.63;100878.73;1707005;83;21150;-83
2022/03/08 09:47:27;;;;;;;;;;;;;;;3.86;72.51;100879.66;1702195;84;20280;-85
2022/03/08 09:49:53;;;;;;;;;;;;;;;4.06;72.20;100882.81;1704021;83;20184;-83
2022/03/08 09:52:19;;;;;;;;;;;;;;;3.83;72.46;100883.77;1702333;83;20271;-82
2022/03/08 09:54:45;;;;;;;;;;;;;;;3.64;73.37;100877.52;1704009;83;20127;-83
2022/03/08 09:57:11;;;;;;;;;;;;;;;3.77;73.42;100882.83;1703996;83;21085;-83
2022/03/08 09:59:37;;;;;;;;;;;;;;;3.87;73.09;100883.09;1706536;84;20375;-83
2022/03/08 10:02:03;;;;;;;;;;;;;;;3.70;73.00;100878.46;1700723;84;20185;-83
2022/03/08 10:04:28;;;;;;;;;;;;;;;3.70;72.85;100876.33;1703241;83;20292;-84
2022/03/08 10:06:54;;;;;;;;;;;;;;;3.89;72.90;100880.77;1705231;84;20147;-87
2022/03/08 10:09:20;;;;;;;;;;;;;;;3.95;72.44;100879.09;1704199;83;21186;-85
2022/03/08 10:11:53;;;;;;;;;;;;;;;4.12;71.77;100887.66;1704214;83;20185;-84
2022/03/08 10:14:38;;;;;;;;;;;;;;;4.11;71.36;100878.95;1701269;83;20183;-82
2022/03/08 10:17:05;;;;;;;;;;;;;;;4.08;71.36;100877.02;1705350;83;20209;-85
2022/03/08 10:19:31;;;;;;;;;;;;;;;4.14;71.21;100867.48;1700892;84;20529;-84
2022/03/08 10:21:57;;;;;;;;;;;;;;;4.33;70.88;100861.08;1700120;83;21102;-85
2022/03/08 10:24:24;;;;;;;;;;;;;;;4.26;70.62;100856.25;1699395;83;20188;-85
2022/03/08 10:27:02;;;;;;;;;;;;;;;4.47;70.13;100861.03;1700983;83;20149;-85
2022/03/08 10:29:31;;;;;;;;;;;;;;;4.04;69.77;100855.91;1706941;83;20859;-84
2022/03/08 10:32:09;;;;;;;;;;;;;;;4.20;69.34;100851.41;1700994;83;20202;-85
2022/03/08 10:34:36;;;;;;;;;;;;;;;4.27;68.92;100844.86;1706829;82;21151;-84
2022/03/08 10:37:07;;;;;;;;;;;;;;;4.31;68.92;100850.24;1686209;82;20483;-83
2022/03/08 10:39:33;;;;;;;;;;;;;;;4.28;69.17;100862.20;1687767;84;20156;-85
2022/03/08 10:41:59;;;;;;;;;;;;;;;4.15;68.77;100861.33;1683883;84;20181;-85
2022/03/08 10:44:38;;;;;;;;;;;;;;;4.30;69.02;100864.72;1694379;83;20128;-84
2022/03/08 10:47:10;;;;;;;;;;;;;;;4.24;69.26;100862.50;1685263;83;22354;-85
2022/03/08 10:49:50;;;;;;;;;;;;;;;4.40;68.60;100866.30;1691862;83;20115;-84
2022/03/08 10:52:15;;;;;;;;;;;;;;;4.50;67.46;100855.59;1688759;83;20427;-83
2022/03/08 10:54:41;;;;;;;;;;;;;;;4.74;67.28;100849.70;1690585;84;20132;-84
2022/03/08 10:57:08;;;;;;;;;;;;;;;4.71;66.67;100848.59;1693068;83;20151;-83
2022/03/08 10:59:35;;;;;;;;;;;;;;;4.91;65.79;100844.20;1680761;84;39199;-85
2022/03/08 11:02:21;;;;;;;;;;;;;;;4.94;65.68;100847.92;1688401;84;20250;-84
2022/03/08 11:04:47;;;;;;;;;;;;;;;4.95;65.15;100842.20;1694567;83;20369;-84
2022/03/08 11:07:13;;;;;;;;;;;;;;;5.09;65.01;100838.67;1689776;83;20168;-85
2022/03/08 11:09:39;;;;;;;;;;;;;;;5.37;64.40;100835.83;1689848;84;20139;-86
2022/03/08 11:12:05;;;;;;;;;;;;;;;5.30;63.55;100842.45;1683984;84;21335;-84
2022/03/08 11:14:31;;;;;;;;;;;;;;;5.22;63.92;100836.91;1691365;84;20192;-84
2022/03/08 11:16:56;;;;;;;;;;;;;;;5.47;63.95;100840.43;1685339;84;20142;-84
2022/03/08 11:19:26;;;;;;;;;;;;;;;5.24;63.49;100835.01;1684413;84;20157;-85
2022/03/08 11:21:51;;;;;;;;;;;;;;;5.32;63.32;100837.93;1682266;84;20147;-85
2022/03/08 11:24:16;;;;;;;;;;;;;;;5.66;62.95;100826.91;1689329;83;21024;-84
2022/03/08 11:26:42;;;;;;;;;;;;;;;5.71;62.69;100827.42;1686136;83;20772;-83
2022/03/08 11:29:08;;;;;;;;;;;;;;;5.64;62.67;100827.02;1689764;83;20273;-84
2022/03/08 11:31:34;;;;;;;;;;;;;;;5.85;63.71;100819.89;1690072;83;20232;-84
2022/03/08 11:34:28;;;;;;;;;;;;;;;5.69;63.71;100822.77;1684842;84;20197;-83
2022/03/08 11:37:00;;;;;;;;;;;;;;;5.86;63.10;100820.27;1684231;83;21099;-83
2022/03/08 11:39:29;;;;;;;;;;;;;;;5.91;62.42;100829.94;1689108;84;20192;-81
2022/03/08 11:42:00;;;;;;;;;;;;;;;6.00;61.86;100830.63;1690994;83;20131;-85
2022/03/08 11:44:31;;;;;;;;;;;;;;;6.15;61.37;100818.66;1680092;84;20171;-83
2022/03/08 11:47:03;;;;;;;;;;;;;;;6.21;61.11;100815.60;1693718;84;20183;-84
2022/03/08 11:49:43;;;;;;;;;;;;;;;6.13;60.55;100810.08;1689124;84;21111;-83
2022/03/08 11:52:10;;;;;;;;;;;;;;;6.27;59.94;100809.91;1685964;84;20253;-82
2022/03/08 11:54:36;;;;;;;;;;;;;;;6.44;59.32;100808.19;1682940;84;20205;-81
2022/03/08 11:57:02;;;;;;;;;;;;;;;6.65;59.09;100815.44;1678981;84;20133;-83
2022/03/08 11:59:28;;;;;;;;;;;;;;;6.50;59.07;100804.77;1688441;84;20227;-82
2022/03/08 12:01:56;;;;;;;;;;;;;;;6.70;57.87;100797.55;1692451;84;21160;-82
2022/03/08 12:04:22;;;;;;;;;;;;;;;6.87;57.23;100803.30;1683732;84;20153;-82
2022/03/08 12:06:58;;;;;;;;;;;;;;;7.04;56.90;100802.03;1685966;84;20151;-83
2022/03/08 12:09:25;;;;;;;;;;;;;;;6.70;56.81;100804.12;1686110;83;20221;-86
2022/03/08 12:11:59;;;;;;;;;;;;;;;6.96;56.59;100794.73;1680814;84;20243;-85
2022/03/08 12:14:38;;;;;;;;;;;;;;;7.06;56.38;100803.59;1686704;83;22058;-83
2022/03/08 12:17:12;;;;;;;;;;;;;;;7.01;56.87;100803.12;1686439;84;20238;-86
2022/03/08 12:19:43;;;;;;;;;;;;;;;7.16;56.96;100790.58;1686553;83;20259;-84
2022/03/08 12:22:15;;;;;;;;;;;;;;;7.05;57.49;100797.14;1686679;84;20580;-85
2022/03/08 12:24:47;;;;;;;;;;;;;;;6.88;56.04;100797.11;1683332;84;20237;-84
2022/03/08 12:27:16;;;;;;;;;;;;;;;7.25;55.42;100783.80;1685510;84;21029;-87
2022/03/08 12:29:56;;;;;;;;;;;;;;;7.64;55.24;100789.51;1683954;83;20157;-88
2022/03/08 12:32:34;;;;;;;;;;;;;;;7.60;54.51;100790.69;1686549;84;20200;-85
2022/03/08 12:35:06;;;;;;;;;;;;;;;8.00;54.69;100794.09;1689250;84;20167;-86
2022/03/08 12:37:39;;;;;;;;;;;;;;;7.73;53.57;100788.78;1684209;82;20176;-84
2022/03/08 12:40:10;;;;;;;;;;;;;;;8.14;53.65;100788.58;1668214;84;21302;-89
2022/03/08 12:42:42;;;;;;;;;;;;;;;7.93;52.37;100787.67;1689941;83;20118;-88
2022/03/08 12:45:35;;;;;;;;;;;;;;;8.18;54.38;100794.41;1687312;84;20179;-88